Time;durP1;ratioP1;P1;durP2;ratioP2;P2;SDS_P1;SDS_P2;PMS_P1;PMS_P2;Temp;Humidity;BMP_temperature;BMP_pressure;BME280_temperature;BME280_humidity;BME280_pressure;Samples;Min_cycle;Max_cycle;Signal;HPM_P1;HPM_P2
2023/10/27 00:02:41;;;;;;;2.38;1.35;;;17.80;90.30;;;;;;12553755;28;20056;-69
2023/10/27 00:08:43;;;;;;;2.08;1.42;;;17.80;90.40;;;;;;12553725;28;20433;-68
2023/10/27 00:14:45;;;;;;;2.10;1.88;;;17.80;90.50;;;;;;12553495;28;20353;-68
2023/10/27 00:20:46;;;;;;;4.28;2.30;;;17.70;90.40;;;;;;12553283;28;20037;-69
2023/10/27 00:26:48;;;;;;;2.88;1.90;;;17.60;90.60;;;;;;12554212;28;20493;-68
2023/10/27 00:32:50;;;;;;;3.53;2.90;;;17.60;90.40;;;;;;12553068;28;20032;-68
2023/10/27 00:38:52;;;;;;;3.25;2.25;;;17.50;90.50;;;;;;12538786;28;20029;-68
2023/10/27 00:44:53;;;;;;;3.58;2.58;;;17.60;90.50;;;;;;12562376;28;20032;-69
2023/10/27 00:50:56;;;;;;;6.07;3.35;;;17.50;90.60;;;;;;12562080;28;20033;-69
2023/10/27 00:56:58;;;;;;;3.53;2.40;;;17.60;90.60;;;;;;12543776;28;20033;-69
2023/10/27 01:03:00;;;;;;;3.90;2.80;;;17.50;90.60;;;;;;12561561;28;20032;-69
2023/10/27 01:09:02;;;;;;;4.55;3.03;;;17.50;90.60;;;;;;12561324;28;20036;-69
2023/10/27 01:15:04;;;;;;;4.88;3.42;;;17.40;90.40;;;;;;12543284;28;20037;-69
2023/10/27 01:21:06;;;;;;;5.70;3.78;;;17.50;90.50;;;;;;12542837;28;20345;-69
2023/10/27 01:27:08;;;;;;;2.50;1.92;;;17.20;89.80;;;;;;12560533;28;20056;-70
2023/10/27 01:33:10;;;;;;;4.97;2.83;;;17.10;90.30;;;;;;12542957;28;20029;-69
2023/10/27 01:39:12;;;;;;;3.40;2.03;;;17.10;90.30;;;;;;12559840;28;20040;-69
2023/10/27 01:45:14;;;;;;;4.65;2.85;;;17.20;90.20;;;;;;12559750;28;20025;-69
2023/10/27 01:51:16;;;;;;;3.95;2.58;;;17.20;90.20;;;;;;12541372;28;20037;-69
2023/10/27 01:57:18;;;;;;;3.90;2.42;;;17.30;90.30;;;;;;12540983;28;20052;-69
2023/10/27 02:03:19;;;;;;;3.20;2.33;;;17.30;90.40;;;;;;12541132;28;20033;-69
2023/10/27 02:09:21;;;;;;;2.92;2.13;;;17.40;90.30;;;;;;12540732;28;20033;-69
2023/10/27 02:15:23;;;;;;;5.10;3.42;;;17.30;90.20;;;;;;12540470;28;20079;-69
2023/10/27 02:21:25;;;;;;;4.35;2.67;;;17.20;90.40;;;;;;12540142;28;20452;-69
2023/10/27 02:27:26;;;;;;;4.65;3.25;;;17.20;90.50;;;;;;12540120;28;20032;-68
2023/10/27 02:33:28;;;;;;;3.80;2.33;;;17.20;90.70;;;;;;12557423;28;20429;-68
2023/10/27 02:39:30;;;;;;;3.25;2.40;;;17.20;90.60;;;;;;12539307;28;20037;-69
2023/10/27 02:45:32;;;;;;;2.08;1.63;;;17.20;90.60;;;;;;12539002;28;20221;-69
2023/10/27 02:51:33;;;;;;;5.38;3.30;;;17.30;90.80;;;;;;12556551;28;20037;-69
2023/10/27 02:57:37;;;;;;;5.30;2.33;;;17.30;90.60;;;;;;12538358;28;20033;-69
2023/10/27 03:03:38;;;;;;;4.20;2.55;;;17.30;90.50;;;;;;12537599;28;20029;-69
2023/10/27 03:09:40;;;;;;;5.65;3.50;;;17.10;90.50;;;;;;12521564;28;20032;-69
2023/10/27 03:15:43;;;;;;;5.82;2.97;;;17.20;90.70;;;;;;12555445;28;20041;-69
2023/10/27 03:21:44;;;;;;;3.78;2.63;;;17.20;90.60;;;;;;12537435;28;20033;-69
2023/10/27 03:27:46;;;;;;;4.45;2.92;;;17.20;90.60;;;;;;12554866;28;20037;-69
2023/10/27 03:33:48;;;;;;;3.92;2.45;;;17.20;90.60;;;;;;12554702;28;20033;-70
2023/10/27 03:39:51;;;;;;;3.45;2.00;;;17.20;90.50;;;;;;12537189;28;20029;-69
2023/10/27 03:45:53;;;;;;;6.35;4.15;;;17.00;90.40;;;;;;12554330;28;20028;-69
2023/10/27 03:51:59;;;;;;;5.38;3.47;;;16.90;90.40;;;;;;12554027;28;20050;-70
2023/10/27 03:58:14;;;;;;;7.72;4.65;;;16.80;90.40;;;;;;12536185;28;20346;-69
2023/10/27 04:04:16;;;;;;;4.78;3.22;;;16.80;90.50;;;;;;12553743;28;20040;-69
2023/10/27 04:10:17;;;;;;;4.90;2.85;;;16.90;90.50;;;;;;12553605;28;20036;-68
2023/10/27 04:16:19;;;;;;;6.95;3.13;;;17.00;90.70;;;;;;12579360;28;20048;-69
2023/10/27 04:22:21;;;;;;;3.55;2.45;;;17.10;90.60;;;;;;12545775;28;20021;-69
2023/10/27 04:28:23;;;;;;;4.22;1.52;;;17.10;90.40;;;;;;12563283;28;20039;-69
2023/10/27 04:34:26;;;;;;;3.53;2.67;;;17.00;90.40;;;;;;12561602;28;20029;-70
2023/10/27 04:40:30;;;;;;;3.80;2.28;;;16.90;90.60;;;;;;12577991;28;20426;-69
2023/10/27 04:46:32;;;;;;;4.80;3.33;;;17.00;90.50;;;;;;12562390;28;20055;-69
2023/10/27 04:52:33;;;;;;;2.75;1.65;;;17.00;90.50;;;;;;12562161;28;20037;-70
2023/10/27 04:58:35;;;;;;;4.28;2.90;;;17.00;90.50;;;;;;12561732;28;20032;-69
2023/10/27 05:04:37;;;;;;;4.15;2.78;;;17.20;90.70;;;;;;12561599;28;20039;-68
2023/10/27 05:10:40;;;;;;;4.38;2.70;;;17.30;90.50;;;;;;12561328;28;20033;-69
2023/10/27 05:16:42;;;;;;;4.28;2.55;;;17.50;90.60;;;;;;12560938;28;20405;-69
2023/10/27 05:22:44;;;;;;;4.32;2.10;;;17.70;90.10;;;;;;12560035;28;20032;-70
2023/10/27 05:28:46;;;;;;;3.97;2.38;;;17.80;90.20;;;;;;12575944;28;20040;-70
2023/10/27 05:34:48;;;;;;;5.32;3.78;;;17.90;89.90;;;;;;12575581;28;20029;-69
2023/10/27 05:40:50;;;;;;;4.05;2.28;;;17.60;89.30;;;;;;12559342;28;20029;-70
2023/10/27 05:47:09;;;;;;;5.57;3.72;;;17.20;89.60;;;;;;12559725;28;20033;-70
2023/10/27 05:53:11;;;;;;;5.00;3.47;;;16.90;89.70;;;;;;12559509;28;20041;-70
2023/10/27 05:59:13;;;;;;;6.60;3.10;;;16.80;89.90;;;;;;12558040;28;20043;-71
2023/10/27 06:05:41;;;;;;;3.85;2.30;;;16.80;90.10;;;;;;12541660;28;20025;-71
2023/10/27 06:11:43;;;;;;;4.03;2.75;;;16.90;90.10;;;;;;12558492;28;20032;-71
2023/10/27 06:17:44;;;;;;;3.35;2.00;;;17.20;90.20;;;;;;12558598;28;20032;-71
2023/10/27 06:23:47;;;;;;;3.28;2.00;;;17.30;89.70;;;;;;12557903;28;20426;-71
2023/10/27 06:29:50;;;;;;;3.53;2.35;;;17.60;89.90;;;;;;12557594;28;20033;-71
2023/10/27 06:35:55;;;;;;;3.50;2.67;;;17.70;89.60;;;;;;12556483;28;20044;-71
2023/10/27 06:41:58;;;;;;;2.17;1.52;;;17.80;89.50;;;;;;12557233;28;20045;-71
2023/10/27 06:48:00;;;;;;;5.22;2.85;;;17.80;89.60;;;;;;12556931;28;20029;-72
2023/10/27 06:54:02;;;;;;;4.70;2.65;;;17.80;89.70;;;;;;12571792;28;20033;-71
2023/10/27 07:00:04;;;;;;;4.43;3.17;;;17.80;89.50;;;;;;12555545;28;20021;-72
2023/10/27 07:06:06;;;;;;;5.35;3.63;;;17.80;89.70;;;;;;12556218;28;20029;-72
2023/10/27 07:12:08;;;;;;;5.15;3.13;;;17.80;89.60;;;;;;12555888;28;20021;-72
2023/10/27 07:18:10;;;;;;;3.25;2.03;;;17.50;89.80;;;;;;12555556;28;20080;-72
2023/10/27 07:24:12;;;;;;;4.63;2.95;;;17.70;89.80;;;;;;12555383;28;20040;-72
2023/10/27 07:30:14;;;;;;;4.50;3.20;;;17.70;89.70;;;;;;12554761;28;20044;-72
2023/10/27 07:36:16;;;;;;;4.13;2.50;;;17.60;89.70;;;;;;12554869;28;20409;-72
2023/10/27 07:42:17;;;;;;;6.97;3.65;;;17.60;89.80;;;;;;12554684;28;20058;-71
2023/10/27 07:48:19;;;;;;;5.40;3.92;;;17.60;89.70;;;;;;12554214;28;20025;-71
2023/10/27 07:54:21;;;;;;;8.57;6.55;;;17.40;89.40;;;;;;12570839;22;20330;-71
2023/10/27 08:00:24;;;;;;;11.25;7.53;;;17.20;89.30;;;;;;12637751;28;20402;-71
2023/10/27 08:06:26;;;;;;;8.68;6.63;;;17.10;89.00;;;;;;12653911;28;20055;-70
2023/10/27 08:12:40;;;;;;;12.55;9.57;;;17.10;89.20;;;;;;12653629;28;20020;-72
2023/10/27 08:18:41;;;;;;;12.23;9.80;;;17.00;89.20;;;;;;12652815;28;20055;-70
2023/10/27 08:24:43;;;;;;;9.93;8.18;;;17.00;89.20;;;;;;12653734;28;20345;-71
2023/10/27 08:30:50;;;;;;;12.07;8.95;;;17.00;89.20;;;;;;12653267;28;20036;-73
2023/10/27 08:36:57;;;;;;;10.05;6.85;;;17.10;89.20;;;;;;12635801;28;20036;-73
2023/10/27 08:42:59;;;;;;;11.00;9.60;;;17.20;89.10;;;;;;12652985;28;20032;-72
2023/10/27 08:49:00;;;;;;;17.50;14.63;;;17.30;89.00;;;;;;12634822;28;20028;-72
2023/10/27 08:55:07;;;;;;;17.00;12.48;;;17.40;88.90;;;;;;12652538;28;20043;-74
2023/10/27 09:01:09;;;;;;;15.75;13.13;;;17.50;88.70;;;;;;12658151;28;20310;-74
2023/10/27 09:07:10;;;;;;;14.63;11.40;;;17.70;88.40;;;;;;12643876;28;20032;-71
2023/10/27 09:13:19;;;;;;;13.07;11.27;;;17.70;88.10;;;;;;12643376;28;20043;-73
2023/10/27 09:19:25;;;;;;;12.07;10.32;;;17.80;88.10;;;;;;12661890;28;20040;-72
2023/10/27 09:25:32;;;;;;;11.63;9.40;;;17.80;87.10;;;;;;12642888;28;20028;-73
2023/10/27 09:31:35;;;;;;;13.30;10.38;;;17.80;87.20;;;;;;12660617;28;20143;-72
2023/10/27 09:37:41;;;;;;;12.98;10.73;;;17.80;87.00;;;;;;12642373;28;20032;-72
2023/10/27 09:43:42;;;;;;;14.77;11.85;;;17.90;86.50;;;;;;12660108;28;20460;-71
2023/10/27 09:49:51;;;;;;;14.18;10.93;;;17.90;86.60;;;;;;12641830;28;20047;-71
2023/10/27 09:55:54;;;;;;;13.40;11.70;;;18.10;86.50;;;;;;12642094;28;20290;-71
2023/10/27 10:02:04;;;;;;;9.93;7.90;;;18.20;86.60;;;;;;12659185;28;20035;-72
2023/10/27 10:08:08;;;;;;;14.68;12.20;;;18.20;86.00;;;;;;12640095;28;20047;-72
2023/10/27 10:14:30;;;;;;;17.42;12.70;;;18.30;86.10;;;;;;12608171;28;20348;-71
2023/10/27 10:20:58;;;;;;;11.95;9.85;;;18.40;85.80;;;;;;12607989;28;20037;-70
2023/10/27 10:27:07;;;;;;;12.38;10.50;;;18.50;85.80;;;;;;12605589;28;20052;-70
2023/10/27 10:33:23;;;;;;;19.88;15.43;;;18.70;86.00;;;;;;12622854;28;20037;-71
2023/10/27 10:39:27;;;;;;;16.55;14.05;;;18.70;85.10;;;;;;12606948;28;20044;-71
2023/10/27 10:45:28;;;;;;;20.23;14.85;;;18.80;85.00;;;;;;12607357;28;20052;-72
2023/10/27 10:51:36;;;;;;;18.92;15.07;;;18.90;84.10;;;;;;12606360;28;20444;-72
2023/10/27 10:57:37;;;;;;;21.58;15.90;;;19.00;84.10;;;;;;12605848;28;20036;-72
2023/10/27 11:03:39;;;;;;;16.92;12.20;;;19.20;83.30;;;;;;12588170;28;20356;-71
2023/10/27 11:09:41;;;;;;;13.30;9.60;;;19.20;83.00;;;;;;12605358;28;20044;-72
2023/10/27 11:15:50;;;;;;;15.75;12.45;;;19.30;82.60;;;;;;12604569;28;20029;-72
2023/10/27 11:21:56;;;;;;;17.60;14.82;;;19.30;81.80;;;;;;12604075;28;20043;-72
2023/10/27 11:28:23;;;;;;;17.58;15.05;;;19.30;81.40;;;;;;12604813;28;20028;-73
2023/10/27 11:34:27;;;;;;;16.23;11.35;;;19.40;81.30;;;;;;12604662;28;20039;-71
2023/10/27 11:40:29;;;;;;;15.70;13.70;;;19.40;81.40;;;;;;12604334;28;20036;-72
2023/10/27 11:46:30;;;;;;;16.77;10.27;;;19.50;81.30;;;;;;12604211;28;20440;-72
2023/10/27 11:52:32;;;;;;;15.43;12.45;;;19.60;81.80;;;;;;12604095;28;20349;-71
2023/10/27 11:58:33;;;;;;;16.40;13.43;;;19.70;81.50;;;;;;12603697;28;20059;-72
2023/10/27 12:04:37;;;;;;;15.60;12.25;;;19.70;80.90;;;;;;12603949;28;20527;-71
2023/10/27 12:10:38;;;;;;;11.07;9.02;;;19.70;81.00;;;;;;12603488;28;20041;-71
2023/10/27 12:16:42;;;;;;;13.20;9.23;;;19.80;80.80;;;;;;12585511;28;20032;-72
2023/10/27 12:22:46;;;;;;;10.82;7.85;;;19.80;80.40;;;;;;12603274;28;20029;-71
2023/10/27 12:28:50;;;;;;;9.50;6.80;;;20.00;81.10;;;;;;12603193;28;20337;-71
2023/10/27 12:34:55;;;;;;;10.23;8.70;;;20.10;81.20;;;;;;12608357;28;20039;-72
2023/10/27 12:40:57;;;;;;;14.48;9.88;;;20.10;81.00;;;;;;12612699;28;20349;-71
2023/10/27 12:46:59;;;;;;;10.30;6.90;;;20.20;80.40;;;;;;12612444;28;20036;-71
2023/10/27 12:53:02;;;;;;;8.63;5.65;;;20.30;80.20;;;;;;12612099;28;20028;-71
2023/10/27 12:59:05;;;;;;;7.57;5.78;;;20.30;80.20;;;;;;12593905;28;20468;-71
2023/10/27 13:05:09;;;;;;;5.88;5.03;;;20.30;79.90;;;;;;12653969;28;20024;-70
2023/10/27 13:11:18;;;;;;;9.82;7.75;;;20.50;79.60;;;;;;12661724;28;20040;-72
2023/10/27 13:17:20;;;;;;;8.10;5.07;;;20.50;79.00;;;;;;12661320;28;20039;-70
2023/10/27 13:23:23;;;;;;;11.18;5.82;;;20.50;79.10;;;;;;12661272;28;20344;-70
2023/10/27 13:29:31;;;;;;;9.15;5.57;;;20.50;78.90;;;;;;12642893;28;20468;-70
2023/10/27 13:35:33;;;;;;;9.93;8.43;;;20.50;78.50;;;;;;12660624;28;20040;-73
2023/10/27 13:41:41;;;;;;;10.73;7.22;;;20.50;78.70;;;;;;12660072;28;20036;-71
2023/10/27 13:47:44;;;;;;;12.83;9.40;;;20.50;78.50;;;;;;12660163;28;20028;-72
2023/10/27 13:53:48;;;;;;;7.72;5.72;;;20.50;76.40;;;;;;12659482;28;20028;-71
2023/10/27 13:59:52;;;;;;;8.93;5.90;;;20.50;76.40;;;;;;12628283;28;20040;-71
2023/10/27 14:05:56;;;;;;;6.22;4.20;;;20.50;76.20;;;;;;12659226;28;20035;-71
2023/10/27 14:12:00;;;;;;;9.23;5.65;;;20.60;76.30;;;;;;12658987;28;20165;-71
2023/10/27 14:18:05;;;;;;;6.68;4.63;;;20.60;75.30;;;;;;12658469;28;20036;-70
2023/10/27 14:24:09;;;;;;;6.38;3.60;;;20.60;75.30;;;;;;12658257;28;20459;-70
2023/10/27 14:30:11;;;;;;;4.47;2.80;;;20.70;75.60;;;;;;12639968;28;20040;-70
2023/10/27 14:36:13;;;;;;;6.93;4.63;;;20.80;76.00;;;;;;12657798;28;20372;-70
2023/10/27 14:42:15;;;;;;;6.18;4.15;;;20.80;75.20;;;;;;12657391;28;20028;-70
2023/10/27 14:48:17;;;;;;;10.52;4.63;;;20.70;74.80;;;;;;12657062;28;20039;-71
2023/10/27 14:54:19;;;;;;;8.32;5.68;;;20.60;75.10;;;;;;12656727;28;20031;-70
2023/10/27 15:00:21;;;;;;;6.25;4.38;;;20.50;74.20;;;;;;12636774;28;20057;-71
2023/10/27 15:06:25;;;;;;;7.43;5.22;;;20.40;74.20;;;;;;12656320;28;20336;-70
2023/10/27 15:12:29;;;;;;;7.47;3.42;;;20.40;74.40;;;;;;12638620;28;20044;-70
2023/10/27 15:18:31;;;;;;;6.22;3.70;;;20.30;75.10;;;;;;12655647;28;20028;-71
2023/10/27 15:24:34;;;;;;;8.18;5.25;;;20.30;75.10;;;;;;12655373;28;20455;-69
2023/10/27 15:30:35;;;;;;;6.53;3.72;;;20.20;74.70;;;;;;12655024;28;20031;-69
2023/10/27 15:36:38;;;;;;;8.27;4.40;;;20.10;74.20;;;;;;12655483;28;20031;-69
2023/10/27 15:42:40;;;;;;;9.10;4.90;;;20.00;74.60;;;;;;12654576;28;20356;-69
2023/10/27 15:48:42;;;;;;;7.40;3.97;;;20.00;74.90;;;;;;12654672;28;20042;-69
2023/10/27 15:54:44;;;;;;;5.97;4.05;;;19.90;75.30;;;;;;12645284;22;20033;-70
2023/10/27 16:00:45;;;;;;;6.28;3.53;;;19.80;75.50;;;;;;12553966;28;20041;-70
2023/10/27 16:06:49;;;;;;;5.82;3.55;;;19.80;76.10;;;;;;12535668;28;20033;-70
2023/10/27 16:12:51;;;;;;;6.22;4.28;;;19.80;76.40;;;;;;12553556;28;20044;-69
2023/10/27 16:18:53;;;;;;;5.38;3.40;;;19.70;77.00;;;;;;12535704;28;20032;-70
2023/10/27 16:24:55;;;;;;;3.65;2.17;;;19.70;77.70;;;;;;12553423;28;20048;-70
2023/10/27 16:31:03;;;;;;;4.75;2.70;;;19.80;78.40;;;;;;12553203;28;20029;-70
2023/10/27 16:37:29;;;;;;;5.00;3.55;;;19.80;79.00;;;;;;12535708;28;20437;-69
2023/10/27 16:43:48;;;;;;;5.85;1.85;;;19.70;79.60;;;;;;12552364;28;20353;-69
2023/10/27 16:49:50;;;;;;;5.45;3.00;;;19.70;80.00;;;;;;12552901;28;20356;-69
2023/10/27 16:55:52;;;;;;;5.35;2.83;;;19.60;80.10;;;;;;12535342;28;20041;-70
2023/10/27 17:01:54;;;;;;;4.93;3.10;;;19.40;80.50;;;;;;12534835;28;20442;-70
2023/10/27 17:07:57;;;;;;;5.03;3.30;;;19.40;80.70;;;;;;12552414;28;20040;-70
2023/10/27 17:13:59;;;;;;;2.83;2.15;;;19.30;81.30;;;;;;12552343;28;20036;-70
2023/10/27 17:20:00;;;;;;;5.60;3.70;;;19.40;81.60;;;;;;12554206;28;20033;-70
2023/10/27 17:26:03;;;;;;;4.15;2.85;;;19.50;82.20;;;;;;12560788;28;20029;-70
2023/10/27 17:32:06;;;;;;;6.70;4.15;;;19.50;82.30;;;;;;12542847;28;20035;-70
2023/10/27 17:38:08;;;;;;;5.80;3.50;;;19.30;82.30;;;;;;12560230;28;20033;-70
2023/10/27 17:44:13;;;;;;;6.13;3.92;;;19.30;82.70;;;;;;12556112;28;20025;-69
2023/10/27 17:50:17;;;;;;;6.72;3.90;;;19.30;82.80;;;;;;12503467;28;20049;-69
2023/10/27 17:56:19;;;;;;;6.55;4.35;;;19.20;82.90;;;;;;12486076;28;20447;-69
2023/10/27 18:02:34;;;;;;;4.43;3.20;;;19.20;83.00;;;;;;12503448;28;20037;-70
2023/10/27 18:09:03;;;;;;;5.32;3.28;;;19.20;83.00;;;;;;12485985;28;20032;-70
2023/10/27 18:15:18;;;;;;;5.35;4.05;;;19.20;83.00;;;;;;12485713;28;20044;-70
2023/10/27 18:21:21;;;;;;;5.40;4.25;;;18.90;83.30;;;;;;12507746;28;20040;-70
2023/10/27 18:27:23;;;;;;;5.10;3.95;;;18.90;83.60;;;;;;12540927;28;20036;-70
2023/10/27 18:33:38;;;;;;;6.80;4.57;;;18.80;83.60;;;;;;12534414;28;20467;-70
2023/10/27 18:39:45;;;;;;;7.63;5.07;;;18.80;83.90;;;;;;12551680;28;20032;-70
2023/10/27 18:45:55;;;;;;;5.38;3.80;;;18.70;84.00;;;;;;12551200;28;20025;-69
2023/10/27 18:51:58;;;;;;;4.70;3.50;;;18.80;84.00;;;;;;12533171;28;20041;-70
2023/10/27 18:58:13;;;;;;;7.00;4.90;;;18.80;84.10;;;;;;12550427;28;20033;-70
2023/10/27 19:04:15;;;;;;;6.03;4.15;;;18.80;84.00;;;;;;12532936;28;20056;-69
2023/10/27 19:10:17;;;;;;;7.05;5.57;;;18.70;84.10;;;;;;12533414;28;20025;-69
2023/10/27 19:16:19;;;;;;;9.10;5.50;;;18.60;84.10;;;;;;12549618;28;20048;-69
2023/10/27 19:22:21;;;;;;;6.85;4.60;;;18.50;83.60;;;;;;12538036;28;20032;-69
2023/10/27 19:28:24;;;;;;;7.45;4.30;;;18.50;83.40;;;;;;12537465;28;20033;-69
2023/10/27 19:34:27;;;;;;;4.32;2.53;;;18.50;83.10;;;;;;12537333;28;20033;-69
2023/10/27 19:40:29;;;;;;;7.75;3.15;;;18.50;83.20;;;;;;12536815;28;20044;-69
2023/10/27 19:46:31;;;;;;;4.57;2.47;;;18.50;83.40;;;;;;12554005;28;20021;-69
2023/10/27 19:52:34;;;;;;;4.80;2.58;;;18.50;83.30;;;;;;12554198;28;20044;-69
2023/10/27 19:58:36;;;;;;;4.95;2.63;;;18.50;83.30;;;;;;12536164;28;20032;-69
2023/10/27 20:04:38;;;;;;;7.03;2.60;;;18.40;83.10;;;;;;12536567;28;20025;-69
2023/10/27 20:10:44;;;;;;;10.40;2.80;;;18.30;82.50;;;;;;12553764;28;20349;-69
2023/10/27 20:16:46;;;;;;;5.70;2.47;;;18.40;83.00;;;;;;12519525;28;20449;-70
2023/10/27 20:22:48;;;;;;;5.90;2.50;;;18.30;82.60;;;;;;12553454;28;20052;-69
2023/10/27 20:28:50;;;;;;;4.03;2.42;;;18.30;82.50;;;;;;12553423;28;20033;-69
2023/10/27 20:34:52;;;;;;;8.43;1.88;;;18.30;82.70;;;;;;12553297;28;20029;-69
2023/10/27 20:40:54;;;;;;;16.13;2.20;;;18.30;82.80;;;;;;12535317;28;20033;-69
2023/10/27 20:46:56;;;;;;;3.00;1.85;;;18.30;82.90;;;;;;12552986;28;20033;-70
2023/10/27 20:52:59;;;;;;;2.88;1.30;;;18.30;83.20;;;;;;12552876;28;20033;-69
2023/10/27 20:59:01;;;;;;;2.17;1.35;;;18.30;83.40;;;;;;12561038;28;20456;-70
2023/10/27 21:05:04;;;;;;;3.10;1.20;;;18.30;83.70;;;;;;12561839;28;20364;-70
2023/10/27 21:11:06;;;;;;;3.22;1.35;;;18.20;84.00;;;;;;12527555;28;20051;-70
2023/10/27 21:17:07;;;;;;;3.92;1.58;;;18.20;84.10;;;;;;12561303;28;20476;-69
2023/10/27 21:23:09;;;;;;;1.77;1.15;;;18.30;84.40;;;;;;12527214;28;20064;-69
2023/10/27 21:29:11;;;;;;;4.20;2.50;;;18.30;84.50;;;;;;12543007;28;20045;-69
2023/10/27 21:35:13;;;;;;;3.00;1.77;;;18.30;84.50;;;;;;12560496;28;20028;-70
2023/10/27 21:41:16;;;;;;;3.95;1.52;;;18.30;84.60;;;;;;12542425;28;20437;-69
2023/10/27 21:47:18;;;;;;;5.70;1.83;;;18.20;84.70;;;;;;12559934;28;20039;-69
2023/10/27 21:53:20;;;;;;;3.25;1.20;;;18.10;84.80;;;;;;12559764;28;20037;-69
2023/10/27 21:59:22;;;;;;;2.55;1.52;;;18.10;84.80;;;;;;12541654;28;20045;-69
2023/10/27 22:05:24;;;;;;;5.95;1.88;;;18.10;84.80;;;;;;12558703;28;20345;-69
2023/10/27 22:11:28;;;;;;;5.28;1.70;;;18.10;84.80;;;;;;12540784;28;20048;-69
2023/10/27 22:17:30;;;;;;;2.35;1.30;;;18.00;84.90;;;;;;12558557;28;20048;-69
2023/10/27 22:23:55;;;;;;;2.78;1.20;;;18.10;84.90;;;;;;12540407;28;20033;-69
2023/10/27 22:29:58;;;;;;;2.53;1.42;;;18.00;84.90;;;;;;12540193;28;20063;-69
2023/10/27 22:36:01;;;;;;;3.97;1.48;;;17.90;85.00;;;;;;12540127;28;20041;-70
2023/10/27 22:42:03;;;;;;;4.10;0.88;;;17.90;85.20;;;;;;12557301;28;20037;-70
2023/10/27 22:48:16;;;;;;;3.70;0.88;;;17.90;85.20;;;;;;12522798;28;20037;-70
2023/10/27 22:54:19;;;;;;;3.25;1.08;;;18.00;85.30;;;;;;12556829;28;20036;-70
2023/10/27 23:00:22;;;;;;;6.20;1.00;;;17.80;85.20;;;;;;12556320;28;20449;-70
2023/10/27 23:06:24;;;;;;;1.55;0.77;;;17.80;85.30;;;;;;12556217;28;20349;-69
2023/10/27 23:12:27;;;;;;;4.30;1.75;;;17.60;85.50;;;;;;12555995;28;20037;-69
2023/10/27 23:18:28;;;;;;;9.48;1.30;;;17.60;85.50;;;;;;12537080;28;20033;-69
2023/10/27 23:24:33;;;;;;;3.75;0.90;;;17.60;85.40;;;;;;12537684;28;20032;-70
2023/10/27 23:30:35;;;;;;;3.65;1.17;;;17.50;85.40;;;;;;12537483;28;20044;-69
2023/10/27 23:36:37;;;;;;;5.25;1.38;;;17.30;85.60;;;;;;12537214;28;20346;-69
2023/10/27 23:42:39;;;;;;;4.13;1.65;;;17.20;85.80;;;;;;12554649;28;20036;-69
2023/10/27 23:48:40;;;;;;;3.53;1.00;;;17.20;86.00;;;;;;12536769;28;20021;-69
2023/10/27 23:54:42;;;;;;;10.00;1.45;;;17.20;85.80;;;;;;12561993;22;20478;-70
